Hilger, Montana
Current Conditions -  °F | °C
As of 7:54 AM on Friday 31 Oct 2014 (Local Time) from KLWT Reporting Station
Clear Clear  
Wind Chill: 38°   Ceiling: Unl
Heat Index: 42°   Visibility: 10mi
Dew Point: 29°   Wind: 6mph
Humidity: 60%   Direction: 100°E
Pressure: 29.89"   Gusts: NA
Location:  47.25°N, 109.36°W
Report Text: KLWT 311354Z AUTO 10005KT 10SM CLR 06/M02 A2989 RMK AO2 SLP123 T00561017
Loading
Personal Weather Stations






























Interactive Weather Map New forecast layout! Learn more

10-Day Weather Forecast

Advertisements
Track Severe Weather on mobile